createdAt,value
2018-06-15T00:00:16.194Z,11.77
2018-06-15T00:02:49.038Z,10.33
2018-06-15T00:05:17.815Z,11.50
2018-06-15T00:07:46.577Z,11.77
2018-06-15T00:10:15.345Z,11.43
2018-06-15T00:12:44.163Z,12.17
2018-06-15T00:15:12.928Z,13.07
2018-06-15T00:17:41.702Z,12.40
2018-06-15T00:20:10.596Z,12.83
2018-06-15T00:22:39.335Z,12.60
2018-06-15T00:25:08.096Z,13.33
2018-06-15T00:27:36.870Z,12.80
2018-06-15T00:30:06.128Z,13.53
2018-06-15T00:32:34.884Z,14.27
2018-06-15T00:35:03.952Z,15.37
2018-06-15T00:37:32.734Z,15.10
2018-06-15T00:40:01.528Z,14.80
2018-06-15T00:42:30.384Z,14.40
2018-06-15T00:44:59.223Z,15.60
2018-06-15T00:47:28.015Z,15.97
2018-06-15T00:49:56.781Z,13.93
2018-06-15T00:52:25.572Z,14.67
2018-06-15T00:54:54.355Z,15.30
2018-06-15T00:57:34.129Z,14.70
2018-06-15T01:00:02.952Z,15.13
2018-06-15T01:02:31.733Z,15.17
2018-06-15T01:05:00.510Z,13.27
2018-06-15T01:07:29.440Z,13.87
2018-06-15T01:09:58.241Z,12.73
2018-06-15T01:12:27.050Z,13.17
2018-06-15T01:14:55.804Z,11.60
2018-06-15T01:17:24.605Z,13.10
2018-06-15T01:19:53.436Z,12.97
2018-06-15T01:22:22.192Z,14.23
2018-06-15T01:24:51.069Z,13.77
2018-06-15T01:27:19.847Z,13.20
2018-06-15T01:29:48.639Z,13.03
2018-06-15T01:32:17.418Z,14.30
2018-06-15T01:34:46.192Z,13.60
2018-06-15T01:37:14.939Z,14.37
2018-06-15T01:39:43.819Z,15.20
2018-06-15T01:42:12.577Z,14.80
2018-06-15T01:44:41.347Z,16.17
2018-06-15T01:47:10.192Z,16.67
2018-06-15T01:49:39.063Z,16.00
2018-06-15T01:52:07.857Z,16.03
2018-06-15T01:54:36.661Z,15.90
2018-06-15T01:57:05.423Z,15.93
2018-06-15T01:59:34.190Z,15.60
2018-06-15T02:02:03.022Z,15.40
2018-06-15T02:04:31.776Z,16.10
2018-06-15T02:07:00.548Z,16.23
2018-06-15T02:09:29.371Z,16.17
2018-06-15T02:11:58.171Z,15.70
2018-06-15T02:14:26.935Z,15.77
2018-06-15T02:16:55.719Z,14.93
2018-06-15T02:19:24.477Z,15.40
2018-06-15T02:21:53.288Z,16.00
2018-06-15T02:24:22.053Z,15.23
2018-06-15T02:26:50.865Z,14.93
2018-06-15T02:29:19.646Z,15.13
2018-06-15T02:31:48.501Z,15.30
2018-06-15T02:34:17.251Z,15.30
2018-06-15T02:36:46.023Z,15.10
2018-06-15T02:39:14.837Z,14.57
2018-06-15T02:41:43.717Z,15.43
2018-06-15T02:44:12.515Z,14.63
2018-06-15T02:46:41.332Z,14.70
2018-06-15T02:49:10.109Z,14.50
2018-06-15T02:51:38.996Z,14.33
2018-06-15T02:54:07.839Z,13.53
2018-06-15T02:56:36.873Z,15.60
2018-06-15T02:59:05.771Z,15.67
2018-06-15T03:01:34.562Z,14.50
2018-06-15T03:04:03.335Z,14.87
2018-06-15T03:06:32.077Z,15.50
2018-06-15T03:09:00.837Z,14.27
2018-06-15T03:11:29.631Z,14.53
2018-06-15T03:13:58.484Z,14.13
2018-06-15T03:16:27.375Z,15.20
2018-06-15T03:18:56.149Z,15.80
2018-06-15T03:21:24.956Z,15.60
2018-06-15T03:23:53.715Z,14.80
2018-06-15T03:26:22.504Z,15.17
2018-06-15T03:28:51.307Z,13.30
2018-06-15T03:31:20.078Z,13.23
2018-06-15T03:33:48.873Z,14.53
2018-06-15T03:36:17.725Z,14.50
2018-06-15T03:38:46.689Z,13.33
2018-06-15T03:41:15.487Z,13.37
2018-06-15T03:43:44.259Z,12.43
2018-06-15T03:46:13.039Z,12.93
2018-06-15T03:48:41.810Z,13.70
2018-06-15T03:51:10.609Z,12.53
2018-06-15T03:53:39.421Z,13.17
2018-06-15T03:56:08.201Z,12.87
2018-06-15T03:58:37.120Z,12.93
2018-06-15T04:01:05.988Z,13.33
2018-06-15T04:03:34.856Z,13.37
2018-06-15T04:06:03.649Z,13.17
2018-06-15T04:08:32.446Z,13.07
2018-06-15T04:11:01.217Z,12.77
2018-06-15T04:13:30.018Z,12.30
2018-06-15T04:15:58.827Z,13.23
2018-06-15T04:18:27.608Z,13.53
2018-06-15T04:20:56.425Z,13.90
2018-06-15T04:23:25.301Z,16.07
2018-06-15T04:25:54.081Z,16.20
2018-06-15T04:28:22.852Z,16.73
2018-06-15T04:30:51.657Z,18.03
2018-06-15T04:33:20.437Z,17.33
2018-06-15T04:35:49.204Z,16.33
2018-06-15T04:38:18.192Z,16.80
2018-06-15T04:40:47.011Z,16.47
2018-06-15T04:43:15.821Z,16.50
2018-06-15T04:45:44.753Z,16.37
2018-06-15T04:48:13.589Z,17.53
2018-06-15T04:50:42.379Z,16.30
2018-06-15T04:53:11.257Z,16.67
2018-06-15T04:55:40.068Z,17.10
2018-06-15T04:58:08.833Z,16.30
2018-06-15T05:00:37.692Z,17.20
2018-06-15T05:03:06.464Z,16.33
2018-06-15T05:05:35.256Z,16.03
2018-06-15T05:08:04.158Z,15.20
2018-06-15T05:10:32.944Z,14.53
2018-06-15T05:13:01.699Z,14.07
2018-06-15T05:15:30.475Z,13.60
2018-06-15T05:17:59.246Z,13.67
2018-06-15T05:20:28.010Z,13.33
2018-06-15T05:22:56.774Z,13.83
2018-06-15T05:25:25.611Z,24.37
2018-06-15T05:27:54.417Z,14.73
2018-06-15T05:30:23.319Z,14.43
2018-06-15T05:32:52.122Z,14.40
2018-06-15T05:35:20.905Z,15.93
2018-06-15T05:37:49.699Z,15.07
2018-06-15T05:40:18.518Z,16.70
2018-06-15T05:42:47.288Z,16.13
2018-06-15T05:45:16.060Z,16.23
2018-06-15T05:47:44.819Z,16.90
2018-06-15T05:50:13.594Z,16.57
2018-06-15T05:52:42.526Z,14.23
2018-06-15T05:55:11.330Z,14.30
2018-06-15T05:57:40.121Z,11.53
2018-06-15T06:00:08.930Z,11.03
2018-06-15T06:02:37.712Z,12.13
2018-06-15T06:05:06.571Z,11.53
2018-06-15T06:07:35.363Z,11.00
2018-06-15T06:10:04.499Z,10.43
2018-06-15T06:12:33.286Z,11.27
2018-06-15T06:15:02.237Z,10.13
2018-06-15T06:17:31.052Z,12.53
2018-06-15T06:20:00.056Z,11.70
2018-06-15T06:22:28.883Z,12.67
2018-06-15T06:24:57.664Z,12.63
2018-06-15T06:27:26.466Z,12.63
2018-06-15T06:29:55.247Z,12.03
2018-06-15T06:32:24.024Z,12.10
2018-06-15T06:34:52.820Z,11.33
2018-06-15T06:37:21.742Z,12.33
2018-06-15T06:39:50.527Z,10.93
2018-06-15T06:42:19.287Z,7.83
2018-06-15T06:44:48.063Z,8.13
2018-06-15T06:47:16.845Z,10.00
2018-06-15T06:49:45.600Z,8.93
2018-06-15T06:52:14.388Z,8.70
2018-06-15T06:54:43.283Z,8.20
2018-06-15T06:57:12.075Z,8.73
2018-06-15T06:59:40.895Z,9.33
2018-06-15T07:02:09.700Z,8.43
2018-06-15T07:04:38.485Z,9.13
2018-06-15T07:07:07.245Z,7.87
2018-06-15T07:09:36.072Z,7.57
2018-06-15T07:12:04.866Z,7.03
2018-06-15T07:14:33.651Z,6.93
2018-06-15T07:17:02.440Z,7.83
2018-06-15T07:19:31.217Z,8.50
2018-06-15T07:22:00.097Z,8.37
2018-06-15T07:24:28.883Z,7.27
2018-06-15T07:26:57.644Z,6.60
2018-06-15T07:29:26.535Z,6.93
2018-06-15T07:31:55.344Z,6.80
2018-06-15T07:34:24.124Z,6.90
2018-06-15T07:36:52.888Z,6.57
2018-06-15T07:39:22.284Z,7.07
2018-06-15T07:41:51.047Z,6.70
2018-06-15T07:44:19.915Z,6.20
2018-06-15T07:46:48.686Z,6.60
2018-06-15T07:49:17.514Z,6.47
2018-06-15T07:51:46.389Z,5.67
2018-06-15T07:54:15.180Z,5.70
2018-06-15T07:56:43.940Z,5.87
2018-06-15T07:59:12.686Z,5.87
2018-06-15T08:01:41.550Z,6.40
2018-06-15T08:04:12.364Z,6.27
2018-06-15T08:06:41.693Z,5.83
2018-06-15T08:09:10.812Z,5.67
2018-06-15T08:11:39.572Z,6.30
2018-06-15T08:14:08.363Z,5.80
2018-06-15T08:16:37.171Z,6.10
2018-06-15T08:19:06.120Z,5.60
2018-06-15T08:21:34.883Z,5.30
2018-06-15T08:24:03.760Z,5.47
2018-06-15T08:26:32.544Z,5.50
2018-06-15T08:29:01.387Z,5.30
2018-06-15T08:31:30.293Z,4.80
2018-06-15T08:33:59.096Z,5.10
2018-06-15T08:36:27.888Z,5.23
2018-06-15T08:38:56.823Z,5.50
2018-06-15T08:41:25.593Z,5.40
2018-06-15T08:43:54.482Z,5.30
2018-06-15T08:46:23.527Z,5.17
2018-06-15T08:48:52.317Z,6.03
2018-06-15T08:51:21.105Z,5.20
2018-06-15T08:53:49.890Z,5.33
2018-06-15T08:56:18.667Z,5.50
2018-06-15T08:58:47.455Z,6.17
2018-06-15T09:01:16.236Z,5.73
2018-06-15T09:03:45.028Z,4.97
2018-06-15T09:06:13.809Z,4.77
2018-06-15T09:08:42.589Z,4.57
2018-06-15T09:11:11.886Z,4.80
2018-06-15T09:13:40.786Z,5.40
2018-06-15T09:16:09.702Z,4.97
2018-06-15T09:18:38.517Z,5.23
2018-06-15T09:21:07.347Z,4.70
2018-06-15T09:23:36.140Z,4.90
2018-06-15T09:26:04.974Z,4.60
2018-06-15T09:28:33.775Z,4.20
2018-06-15T09:31:02.564Z,4.60
2018-06-15T09:33:31.366Z,4.63
2018-06-15T09:36:00.267Z,4.57
2018-06-15T09:38:29.036Z,4.60
2018-06-15T09:40:57.864Z,4.93
2018-06-15T09:43:26.642Z,5.13
2018-06-15T09:45:56.032Z,4.63
2018-06-15T09:48:25.041Z,4.53
2018-06-15T09:50:53.828Z,4.27
2018-06-15T09:53:22.608Z,4.53
2018-06-15T09:55:51.503Z,4.47
2018-06-15T09:58:20.449Z,5.20
2018-06-15T10:00:52.655Z,4.80
2018-06-15T10:03:21.602Z,4.50
2018-06-15T10:05:50.430Z,4.60
2018-06-15T10:08:19.329Z,4.93
2018-06-15T10:10:48.129Z,5.27
2018-06-15T10:13:16.949Z,5.27
2018-06-15T10:15:45.741Z,5.43
2018-06-15T10:18:14.519Z,4.53
2018-06-15T10:20:43.409Z,4.57
2018-06-15T10:23:12.223Z,4.50
2018-06-15T10:25:41.009Z,4.53
2018-06-15T10:28:10.116Z,4.00
2018-06-15T10:30:38.971Z,4.30
2018-06-15T10:33:07.982Z,5.23
2018-06-15T10:35:36.783Z,4.53
2018-06-15T10:38:05.658Z,5.17
2018-06-15T10:40:34.479Z,4.10
2018-06-15T10:43:03.351Z,5.57
2018-06-15T10:45:32.164Z,6.23
2018-06-15T10:48:01.056Z,5.40
2018-06-15T10:50:29.959Z,5.67
2018-06-15T10:52:58.973Z,5.93
2018-06-15T10:55:27.749Z,5.50
2018-06-15T10:57:56.520Z,6.20
2018-06-15T11:00:25.282Z,4.53
2018-06-15T11:02:54.103Z,4.50
2018-06-15T11:05:24.780Z,4.33
2018-06-15T11:07:53.583Z,5.10
2018-06-15T11:10:22.452Z,4.80
2018-06-15T11:12:51.228Z,4.70
2018-06-15T11:15:20.023Z,5.07
2018-06-15T11:17:48.820Z,5.07
2018-06-15T11:20:17.609Z,5.60
2018-06-15T11:22:46.458Z,4.90
2018-06-15T11:25:15.245Z,4.93
2018-06-15T11:27:44.091Z,2.17
2018-06-15T11:30:12.907Z,2.10
2018-06-15T11:32:41.763Z,2.07
2018-06-15T11:35:10.573Z,2.67
2018-06-15T11:37:39.346Z,2.80
2018-06-15T11:40:08.158Z,2.90
2018-06-15T11:42:36.970Z,3.07
2018-06-15T11:45:05.855Z,3.50
2018-06-15T11:47:34.844Z,3.47
2018-06-15T11:50:03.836Z,3.20
2018-06-15T11:52:32.748Z,3.40
2018-06-15T11:55:02.119Z,3.33
2018-06-15T11:57:30.908Z,3.90
2018-06-15T11:59:59.755Z,4.80
2018-06-15T12:02:28.549Z,5.23
2018-06-15T12:04:57.309Z,5.70
2018-06-15T12:07:26.089Z,6.20
2018-06-15T12:09:54.991Z,6.80
2018-06-15T12:12:23.893Z,6.20
2018-06-15T12:14:52.689Z,6.30
2018-06-15T12:17:21.518Z,5.87
2018-06-15T12:19:50.284Z,6.47
2018-06-15T12:22:19.080Z,6.90
2018-06-15T12:24:48.172Z,7.13
2018-06-15T12:27:16.999Z,6.47
2018-06-15T12:29:45.755Z,6.53
2018-06-15T12:32:14.527Z,5.90
2018-06-15T12:34:43.383Z,6.03
2018-06-15T12:37:12.183Z,6.10
2018-06-15T12:39:40.979Z,5.80
2018-06-15T12:42:09.780Z,5.40
2018-06-15T12:44:38.588Z,5.70
2018-06-15T12:47:07.383Z,5.70
2018-06-15T12:49:36.177Z,5.23
2018-06-15T12:52:04.980Z,5.13
2018-06-15T12:54:33.803Z,4.97
2018-06-15T12:57:02.726Z,5.17
2018-06-15T12:59:31.553Z,5.33
2018-06-15T13:02:00.369Z,6.03
2018-06-15T13:04:29.120Z,5.10
2018-06-15T13:06:57.978Z,5.70
2018-06-15T13:09:26.726Z,5.33
2018-06-15T13:11:55.503Z,4.83
2018-06-15T13:14:24.322Z,4.87
2018-06-15T13:16:53.134Z,4.27
2018-06-15T13:19:22.056Z,4.00
2018-06-15T13:21:50.926Z,3.97
2018-06-15T13:24:19.730Z,4.37
2018-06-15T13:26:48.517Z,4.13
2018-06-15T13:29:17.319Z,3.93
2018-06-15T13:31:46.125Z,4.10
2018-06-15T13:34:14.932Z,4.43
2018-06-15T13:36:43.710Z,4.47
2018-06-15T13:39:13.687Z,5.00
2018-06-15T13:41:42.556Z,4.57
2018-06-15T13:44:11.382Z,7.40
2018-06-15T13:46:40.167Z,4.33
2018-06-15T13:49:08.955Z,4.87
2018-06-15T13:51:37.760Z,4.53
2018-06-15T13:54:06.522Z,4.07
2018-06-15T13:56:35.375Z,3.97
2018-06-15T13:59:04.290Z,3.70
2018-06-15T14:01:33.088Z,3.67
2018-06-15T14:04:01.968Z,3.20
2018-06-15T14:06:30.776Z,4.17
2018-06-15T14:08:59.662Z,3.93
2018-06-15T14:11:28.489Z,3.60
2018-06-15T14:13:57.263Z,4.20
2018-06-15T14:16:26.029Z,5.73
2018-06-15T14:18:54.966Z,5.13
2018-06-15T14:21:23.805Z,4.73
2018-06-15T14:23:52.591Z,4.70
2018-06-15T14:26:21.488Z,5.63
2018-06-15T14:28:50.360Z,4.47
2018-06-15T14:31:19.251Z,4.43
2018-06-15T14:33:48.058Z,4.10
2018-06-15T14:36:16.832Z,4.30
2018-06-15T14:38:45.615Z,3.73
2018-06-15T14:41:14.396Z,3.57
2018-06-15T14:43:43.180Z,3.40
2018-06-15T14:46:11.938Z,3.30
2018-06-15T14:48:40.846Z,3.50
2018-06-15T14:51:09.748Z,3.73
2018-06-15T14:53:38.702Z,3.77
2018-06-15T14:56:07.767Z,4.13
2018-06-15T14:58:36.547Z,4.13
2018-06-15T15:01:05.459Z,3.10
2018-06-15T15:03:34.330Z,4.07
2018-06-15T15:06:03.229Z,3.57
2018-06-15T15:08:32.024Z,3.60
2018-06-15T15:11:00.964Z,3.30
2018-06-15T15:13:29.831Z,3.43
2018-06-15T15:15:58.633Z,3.40
2018-06-15T15:18:27.490Z,3.47
2018-06-15T15:20:56.313Z,4.87
2018-06-15T15:23:25.129Z,3.83
2018-06-15T15:25:53.950Z,3.63
2018-06-15T15:28:22.782Z,3.83
2018-06-15T15:30:51.662Z,4.80
2018-06-15T15:33:20.546Z,4.33
2018-06-15T15:35:49.539Z,5.83
2018-06-15T15:38:18.338Z,3.37
2018-06-15T15:40:47.135Z,2.80
2018-06-15T15:44:45.272Z,2.73
2018-06-15T15:47:14.106Z,2.90
2018-06-15T15:49:42.960Z,3.33
2018-06-15T15:52:11.790Z,2.83
2018-06-15T15:54:40.713Z,8.90
2018-06-15T15:57:09.569Z,6.13
2018-06-15T15:59:38.428Z,6.37
2018-06-15T16:02:07.274Z,11.53
2018-06-15T16:04:36.104Z,9.87
2018-06-15T16:07:04.999Z,24.80
2018-06-15T16:09:33.844Z,7.47
2018-06-15T16:12:02.615Z,9.77
2018-06-15T16:14:31.416Z,4.00
2018-06-15T16:17:00.295Z,4.03
2018-06-15T16:19:29.174Z,3.80
2018-06-15T16:21:58.017Z,4.47
2018-06-15T16:24:26.806Z,4.47
2018-06-15T16:26:55.627Z,4.57
2018-06-15T16:29:24.479Z,4.33
2018-06-15T16:31:53.295Z,4.43
2018-06-15T16:34:22.265Z,4.77
2018-06-15T16:36:51.118Z,5.40
2018-06-15T16:39:20.125Z,5.90
2018-06-15T16:41:49.118Z,5.70
2018-06-15T16:44:18.100Z,6.53
2018-06-15T16:46:47.023Z,7.37
2018-06-15T16:49:15.822Z,8.07
2018-06-15T16:51:44.709Z,8.90
2018-06-15T16:54:13.589Z,9.47
2018-06-15T16:56:42.465Z,8.40
2018-06-15T16:59:11.397Z,9.00
2018-06-15T17:01:40.326Z,8.37
2018-06-15T17:04:09.183Z,8.87
2018-06-15T17:06:38.112Z,9.30
2018-06-15T17:09:08.563Z,9.30
2018-06-15T17:11:37.387Z,9.33
2018-06-15T17:14:06.571Z,11.80
2018-06-15T17:16:35.544Z,11.77
2018-06-15T17:19:04.391Z,9.43
2018-06-15T17:21:33.370Z,7.27
2018-06-15T17:24:02.270Z,6.90
2018-06-15T17:26:31.288Z,6.60
2018-06-15T17:29:00.192Z,7.10
2018-06-15T17:31:29.185Z,6.47
2018-06-15T17:33:57.999Z,6.23
2018-06-15T17:36:26.874Z,6.70
2018-06-15T17:38:55.738Z,9.33
2018-06-15T17:41:24.502Z,6.40
2018-06-15T17:43:53.381Z,11.13
2018-06-15T17:46:22.305Z,15.47
2018-06-15T17:48:51.152Z,12.93
2018-06-15T17:51:19.967Z,13.17
2018-06-15T17:53:48.767Z,7.70
2018-06-15T17:56:17.562Z,9.73
2018-06-15T17:58:46.360Z,12.03
2018-06-15T18:01:15.162Z,16.13
2018-06-15T18:03:44.023Z,25.27
2018-06-15T18:06:12.820Z,8.57
2018-06-15T18:08:41.698Z,6.00
2018-06-15T18:11:10.686Z,5.47
2018-06-15T18:13:39.499Z,12.33
2018-06-15T18:16:08.329Z,13.33
2018-06-15T18:18:37.133Z,10.27
2018-06-15T18:21:06.031Z,6.33
2018-06-15T18:23:34.929Z,5.60
2018-06-15T18:26:03.819Z,5.63
2018-06-15T18:28:32.660Z,16.70
2018-06-15T18:31:01.559Z,12.13
2018-06-15T18:33:30.446Z,12.37
2018-06-15T18:35:59.248Z,23.47
2018-06-15T18:38:28.120Z,35.30
2018-06-15T18:40:56.913Z,47.40
2018-06-15T18:43:25.705Z,40.60
2018-06-15T18:45:54.628Z,31.47
2018-06-15T18:48:23.539Z,27.13
2018-06-15T18:50:52.383Z,18.13
2018-06-15T18:53:21.264Z,19.40
2018-06-15T18:55:50.070Z,15.37
2018-06-15T18:58:18.952Z,8.50
2018-06-15T19:00:47.813Z,7.03
2018-06-15T19:03:16.646Z,11.07
2018-06-15T19:05:45.622Z,43.70
2018-06-15T19:08:14.506Z,42.80
2018-06-15T19:10:43.304Z,30.87
2018-06-15T19:13:12.176Z,25.17
2018-06-15T19:15:41.197Z,34.93
2018-06-15T19:18:10.924Z,33.20
2018-06-15T19:20:39.866Z,28.30
2018-06-15T19:23:08.682Z,12.03
2018-06-15T19:25:37.522Z,9.63
2018-06-15T19:28:06.345Z,9.90
2018-06-15T19:30:35.324Z,10.27
2018-06-15T19:33:04.166Z,12.37
2018-06-15T19:35:33.017Z,10.43
2018-06-15T19:38:02.128Z,6.50
2018-06-15T19:40:30.960Z,7.00
2018-06-15T19:42:59.763Z,7.50
2018-06-15T19:45:28.669Z,8.17
2018-06-15T19:47:57.497Z,11.27
2018-06-15T19:50:26.315Z,13.20
2018-06-15T19:52:55.153Z,15.70
2018-06-15T19:55:24.020Z,18.07
2018-06-15T19:57:52.874Z,16.23
2018-06-15T20:00:21.809Z,13.23
2018-06-15T20:02:50.625Z,9.37
2018-06-15T20:05:19.522Z,8.50
2018-06-15T20:07:48.278Z,6.47
2018-06-15T20:10:17.092Z,7.17
2018-06-15T20:12:45.993Z,7.57
2018-06-15T20:15:14.866Z,8.50
2018-06-15T20:17:43.663Z,9.80
2018-06-15T20:20:12.473Z,8.97
2018-06-15T20:22:41.380Z,9.20
2018-06-15T20:25:10.180Z,8.67
2018-06-15T20:27:39.269Z,7.83
2018-06-15T20:30:08.746Z,7.97
2018-06-15T20:32:37.779Z,8.47
2018-06-15T20:35:06.824Z,8.37
2018-06-15T20:37:35.636Z,7.73
2018-06-15T20:40:04.539Z,7.60
2018-06-15T20:42:33.327Z,8.13
2018-06-15T20:45:02.329Z,7.83
2018-06-15T20:47:31.116Z,7.17
2018-06-15T20:49:59.985Z,7.53
2018-06-15T20:52:28.796Z,6.90
2018-06-15T20:54:57.587Z,6.67
2018-06-15T20:57:26.440Z,6.60
2018-06-15T20:59:55.364Z,6.30
2018-06-15T21:02:24.165Z,6.70
2018-06-15T21:04:52.950Z,6.73
2018-06-15T21:07:21.927Z,6.53
2018-06-15T21:09:50.766Z,6.93
2018-06-15T21:12:19.574Z,6.57
2018-06-15T21:14:48.352Z,6.10
2018-06-15T21:17:17.240Z,6.20
2018-06-15T21:19:46.032Z,6.27
2018-06-15T21:22:15.116Z,6.43
2018-06-15T21:24:44.948Z,6.23
2018-06-15T21:27:13.747Z,6.03
2018-06-15T21:29:42.608Z,6.33
2018-06-15T21:32:11.401Z,5.93
2018-06-15T21:34:40.264Z,6.07
2018-06-15T21:37:09.059Z,6.40
2018-06-15T21:39:37.825Z,7.17
2018-06-15T21:42:06.679Z,7.47
2018-06-15T21:44:35.472Z,7.37
2018-06-15T21:47:04.313Z,7.27
2018-06-15T21:49:33.135Z,7.17
2018-06-15T21:52:01.998Z,6.83
2018-06-15T21:54:30.809Z,7.63
2018-06-15T21:58:28.888Z,7.83
2018-06-15T22:00:57.744Z,9.23
2018-06-15T22:03:26.575Z,9.77
2018-06-15T22:05:55.482Z,10.03
2018-06-15T22:08:24.401Z,10.23
2018-06-15T22:10:53.175Z,9.80
2018-06-15T22:13:22.003Z,10.43
2018-06-15T22:15:50.821Z,10.13
2018-06-15T22:18:19.618Z,11.00
2018-06-15T22:20:48.500Z,11.60
2018-06-15T22:23:17.340Z,11.00
2018-06-15T22:25:46.400Z,11.37
2018-06-15T22:28:15.155Z,10.40
2018-06-15T22:30:43.966Z,11.53
2018-06-15T22:33:12.775Z,10.97
2018-06-15T22:35:41.661Z,10.73
2018-06-15T22:38:10.445Z,10.57
2018-06-15T22:40:39.239Z,10.80
2018-06-15T22:43:08.111Z,10.70
2018-06-15T22:45:36.913Z,9.07
2018-06-15T22:48:05.778Z,8.80
2018-06-15T22:50:34.725Z,8.47
2018-06-15T22:53:03.591Z,8.30
2018-06-15T22:55:32.374Z,9.27
2018-06-15T22:58:01.313Z,9.20
2018-06-15T23:00:30.112Z,9.23
2018-06-15T23:02:58.911Z,9.27
2018-06-15T23:05:27.684Z,9.07
2018-06-15T23:07:56.459Z,8.83
2018-06-15T23:10:25.259Z,9.17
2018-06-15T23:12:54.052Z,10.17
2018-06-15T23:15:22.842Z,9.77
2018-06-15T23:17:51.629Z,9.47
2018-06-15T23:20:20.500Z,9.30
2018-06-15T23:22:49.290Z,9.00
2018-06-15T23:25:18.184Z,8.13
2018-06-15T23:27:46.940Z,8.70
2018-06-15T23:30:15.699Z,8.67
2018-06-15T23:32:44.447Z,7.57
2018-06-15T23:35:13.889Z,7.57
2018-06-15T23:37:42.709Z,7.97
2018-06-15T23:40:11.481Z,7.73
2018-06-15T23:42:40.403Z,8.03
2018-06-15T23:45:09.192Z,7.73
2018-06-15T23:47:37.988Z,7.97
2018-06-15T23:50:07.268Z,7.30
2018-06-15T23:52:36.043Z,7.30
2018-06-15T23:55:04.962Z,7.17
2018-06-15T23:57:33.860Z,6.93
